Flight Track Log - Related Links

Times and Time Zones

All times are in EDT time to prevent confusion due to time zone crossing. See the N421VA flight status page for this flight to view local times or setup timezone preferences in your user account.

Time Position Orientation Groundspeed Altitude Reporting Facility
EDT Latitude Longitude Course Direction KTS MPH feet Rate Location/Type
Sun 04:39:34 PM 41.5336 -81.6733 360° North 121 139 1,300  Level Cleveland Center
Sun 04:39:46 PM 41.5400 -81.6733 360° North 124 143 1,400 575 Climbing Cleveland Center
Sun 04:40:47 PM 41.5711 -81.6878 341° North 131 151 2,000 639 Climbing Cleveland Center
Sun 04:41:48 PM 41.5997 -81.7300 312° West 136 157 2,700 656 Climbing Cleveland Center
Sun 04:42:55 PM 41.6014 -81.7856 272° West 144 166 3,400 843 Climbing Cleveland Center
Sun 04:43:49 PM 41.5989 -81.8272 265° West 116 133 4,400 887 Climbing Cleveland Center
Sun 04:44:50 PM 41.6025 -81.8689 277° West 113 130 5,100 689 Climbing Cleveland Center
Sun 04:45:51 PM 41.5731 -81.8961 215° Southwest 134 154 5,800 656 Climbing Cleveland Center
Sun 04:46:58 PM 41.5272 -81.9033 187° South 152 175 6,500 694 Climbing Cleveland Center
Sun 04:47:52 PM 41.4914 -81.9164 195° South 141 162 7,200 678 Climbing Cleveland Center
Sun 04:48:53 PM 41.4517 -81.9294 194° South 145 167 7,800 590 Climbing Cleveland Center
Sun 04:49:54 PM 41.4161 -81.9400 193° South 146 168 8,400 638 Climbing Cleveland Center
Sun 04:50:27 PM 41.3931 -81.9450 189° South 155 178 8,800 645 Climbing Cleveland Center
Sun 04:51:27 PM 41.3556 -81.9553 192° South 150 173 9,400 650 Climbing Cleveland Center
Sun 04:52:27 PM 41.3158 -81.9544 179° South 145 167 10,100 650 Climbing Cleveland Center
Sun 04:53:27 PM 41.2783 -81.9619 189° South 145 167 10,700 450 Climbing Cleveland Center
Sun 04:54:27 PM 41.2367 -81.9692 187° South 145 167 11,000 150 Climbing Cleveland Center
Sun 04:55:27 PM 41.1864 -81.9792 189° South 157 181 11,000 150 Level Cleveland Center
Sun 04:56:27 PM 41.1361 -81.9892 189° South 178 205 11,300 500 Climbing Cleveland Center
Sun 04:57:27 PM 41.0964 -81.9967 188° South 178 205 12,000 700 Climbing Cleveland Center
Sun 04:58:27 PM 41.0547 -82.0094 193° South 163 188 12,700 550 Climbing Cleveland Center
Sun 04:59:27 PM 41.0189 -82.0281 201° Southwest 146 168 13,100 550 Climbing Cleveland Center
Sun 05:00:27 PM 40.9792 -82.0517 204° Southwest 151 174 13,800 450 Climbing Cleveland Center
Sun 05:01:27 PM 40.9411 -82.0811 210° Southwest 156 180 14,000 100 Climbing Cleveland Center
Sun 05:02:27 PM 40.8928 -82.1214 212° Southwest 173 199 14,000  Level Cleveland Center
Sun 05:03:27 PM 40.8442 -82.1586 210° Southwest 194 223 14,000  Level Cleveland Center
Sun 05:04:27 PM 40.7981 -82.1903 207° Southwest 194 223 14,000  Level Cleveland Center
Sun 05:05:52 PM 40.7381 -82.2269 205° Southwest 189 217 14,000  Level Indianapolis Center
Sun 05:06:54 PM 40.6906 -82.2567 205° Southwest 189 217 14,000  Level Indianapolis Center
Sun 05:07:56 PM 40.6347 -82.2911 205° Southwest 189 217 14,000  Level Indianapolis Center
Sun 05:08:58 PM 40.5864 -82.3194 204° Southwest 189 217 14,000  Level Indianapolis Center
Sun 05:10:00 PM 40.5425 -82.3569 213° Southwest 187 215 14,000  Level Indianapolis Center
Sun 05:11:01 PM 40.4981 -82.3881 208° Southwest 182 209 14,000  Level Indianapolis Center
Sun 05:12:03 PM 40.4497 -82.4156 203° Southwest 187 215 14,000  Level Indianapolis Center
Sun 05:13:05 PM 40.4006 -82.4411 202° Southwest 188 216 14,000  Level Indianapolis Center
Sun 05:14:07 PM 40.3525 -82.4664 202° Southwest 185 213 14,000  Level Indianapolis Center
Sun 05:15:09 PM 40.3042 -82.4947 204° Southwest 187 215 14,000  Level Indianapolis Center
Sun 05:16:11 PM 40.2469 -82.5258 203° Southwest 188 216 14,000  Level Indianapolis Center
Sun 05:17:12 PM 40.2039 -82.5528 206° Southwest 184 212 14,000  Level Indianapolis Center
Sun 05:18:14 PM 40.1578 -82.5831 207° Southwest 184 212 14,000  Level Indianapolis Center
Sun 05:19:16 PM 40.1064 -82.5975 192° South 187 215 14,000  Level Indianapolis Center
Sun 05:20:18 PM 40.0547 -82.6081 189° South 188 216 14,000  Level Indianapolis Center
Sun 05:21:20 PM 40.0053 -82.6250 195° South 185 213 14,000  Level Indianapolis Center
Sun 05:22:22 PM 39.9417 -82.6397 190° South 191 220 14,000  Level Indianapolis Center
Sun 05:23:23 PM 39.8911 -82.6467 186° South 185 213 14,000  Level Indianapolis Center
Sun 05:24:25 PM 39.8386 -82.6558 188° South 188 216 14,000  Level Indianapolis Center
Sun 05:25:27 PM 39.7867 -82.6628 186° South 188 216 14,000  Level Indianapolis Center
Sun 05:26:29 PM 39.7364 -82.6708 187° South 183 211 14,000 -146 Level Indianapolis Center
Sun 05:27:30 PM 39.6833 -82.6811 188° South 191 220 13,700 -439 Descending Indianapolis Center
Sun 05:28:32 PM 39.6253 -82.6908 187° South 207 238 13,100 -581 Descending Indianapolis Center
Sun 05:29:34 PM 39.5536 -82.7072 190° South 217 250 12,500 -581 Descending Indianapolis Center
Sun 05:30:36 PM 39.4933 -82.7194 189° South 219 252 11,900 -532 Descending Indianapolis Center
Sun 05:31:38 PM 39.4331 -82.7322 189° South 219 252 11,400 -387 Descending Indianapolis Center
Sun 05:32:40 PM 39.3747 -82.7450 190° South 214 246 11,100 -774 Descending Indianapolis Center
Sun 05:33:42 PM 39.3164 -82.7558 188° South 210 242 9,800 -1,561 Descending Indianapolis Center
Sun 05:34:43 PM 39.2489 -82.7694 189° South 231 266 7,900 -1,756 Descending Indianapolis Center
Sun 05:35:45 PM 39.1775 -82.7911 193° South 239 275 6,200 -1,548 Descending Indianapolis Center
Sun 05:36:47 PM 39.1147 -82.8069 191° South 234 269 4,700 -1,403 Descending Indianapolis Center
Sun 05:37:49 PM 39.0525 -82.8164 187° South 227 261 3,300 -823 Descending Indianapolis Center
Sun 05:38:51 PM 38.9931 -82.8242 186° South 221 254 3,000 -145 Descending Indianapolis Center
Sun 05:39:53 PM 38.9275 -82.8342 187° South 212 244 3,000  Level Indianapolis Center

Login

Don't have an account? Register now (free) for customized features, flight alerts, and more!